Time;durP1;ratioP1;P1;durP2;ratioP2;P2;SDS_P1;SDS_P2;PMS_P1;PMS_P2;Temp;Humidity;BMP_temperature;BMP_pressure;BME280_temperature;BME280_humidity;BME280_pressure;Samples;Min_cycle;Max_cycle;Signal;HPM_P1;HPM_P2
2023/07/16 00:00:52;;;;;;;6.05;5.45;;;;;;;;;;9985086;28;20053;-45
2023/07/16 00:05:44;;;;;;;6.78;6.07;;;;;;;;;;9982733;28;20038;-46
2023/07/16 00:10:37;;;;;;;7.30;5.13;;;;;;;;;;9984204;28;20722;-46
2023/07/16 00:15:29;;;;;;;5.40;4.90;;;;;;;;;;9986927;28;20067;-45
2023/07/16 00:20:23;;;;;;;5.28;4.88;;;;;;;;;;9985217;28;20042;-45
2023/07/16 00:25:15;;;;;;;5.65;5.07;;;;;;;;;;9985283;28;20058;-46
2023/07/16 00:30:07;;;;;;;4.82;4.40;;;;;;;;;;9985011;28;20432;-47
2023/07/16 00:35:01;;;;;;;6.00;5.40;;;;;;;;;;9984179;28;20054;-46
2023/07/16 00:39:53;;;;;;;7.63;5.47;;;;;;;;;;9985170;28;20049;-49
2023/07/16 00:44:47;;;;;;;12.88;5.88;;;;;;;;;;9986798;28;20062;-47
2023/07/16 00:49:39;;;;;;;6.57;5.35;;;;;;;;;;9985210;28;20379;-48
2023/07/16 00:54:31;;;;;;;5.70;5.05;;;;;;;;;;9976142;28;20051;-48
2023/07/16 00:59:23;;;;;;;9.82;4.82;;;;;;;;;;9993076;28;20350;-44
2023/07/16 01:04:15;;;;;;;7.00;5.18;;;;;;;;;;9990878;28;20125;-47
2023/07/16 01:09:19;;;;;;;6.53;4.15;;;;;;;;;;9974587;28;20086;-48
2023/07/16 01:14:12;;;;;;;10.63;5.35;;;;;;;;;;9989982;28;20379;-47
2023/07/16 01:19:05;;;;;;;8.50;4.80;;;;;;;;;;9988362;28;20109;-47
2023/07/16 01:24:35;;;;;;;6.93;4.85;;;;;;;;;;9990279;28;20050;-47
2023/07/16 01:29:33;;;;;;;5.80;5.30;;;;;;;;;;9951309;28;20073;-46
2023/07/16 01:34:30;;;;;;;4.70;4.05;;;;;;;;;;9978248;28;20081;-48
2023/07/16 01:39:22;;;;;;;5.40;4.53;;;;;;;;;;9987771;28;20121;-48
2023/07/16 01:44:14;;;;;;;8.15;5.90;;;;;;;;;;9971643;28;20081;-48
2023/07/16 01:49:06;;;;;;;8.48;5.10;;;;;;;;;;9970977;28;20050;-47
2023/07/16 01:53:58;;;;;;;5.55;4.55;;;;;;;;;;9988780;28;20387;-47
2023/07/16 01:58:50;;;;;;;8.30;5.20;;;;;;;;;;9989965;28;20070;-49
2023/07/16 02:03:42;;;;;;;5.93;4.93;;;;;;;;;;9988913;28;20740;-48
2023/07/16 02:08:34;;;;;;;6.95;5.35;;;;;;;;;;9988417;28;20101;-49
2023/07/16 02:13:27;;;;;;;6.28;5.40;;;;;;;;;;9989428;28;20046;-49
2023/07/16 02:18:19;;;;;;;5.05;4.55;;;;;;;;;;9971194;28;20141;-48
2023/07/16 02:23:11;;;;;;;7.35;5.18;;;;;;;;;;9990325;28;20093;-48
2023/07/16 02:28:03;;;;;;;6.32;4.97;;;;;;;;;;9987830;28;20230;-49
2023/07/16 02:32:55;;;;;;;5.28;4.55;;;;;;;;;;9987031;28;20050;-49
2023/07/16 02:37:47;;;;;;;5.63;4.50;;;;;;;;;;9990092;28;20461;-47
2023/07/16 02:42:39;;;;;;;5.97;4.82;;;;;;;;;;9991002;28;20427;-49
2023/07/16 02:47:30;;;;;;;6.40;4.70;;;;;;;;;;9989958;28;20956;-49
2023/07/16 02:52:23;;;;;;;5.57;4.55;;;;;;;;;;9988213;28;20040;-50
2023/07/16 02:57:15;;;;;;;4.53;4.10;;;;;;;;;;9986945;28;20460;-48
2023/07/16 03:02:07;;;;;;;9.07;5.75;;;;;;;;;;9987324;28;20053;-47
2023/07/16 03:06:59;;;;;;;6.63;4.07;;;;;;;;;;9985992;28;20476;-48
2023/07/16 03:11:51;;;;;;;10.88;4.55;;;;;;;;;;9986874;28;20065;-48
2023/07/16 03:16:43;;;;;;;5.85;5.03;;;;;;;;;;9987476;28;20057;-48
2023/07/16 03:21:36;;;;;;;4.97;4.47;;;;;;;;;;9986907;28;20038;-49
2023/07/16 03:26:28;;;;;;;5.40;4.20;;;;;;;;;;9968335;28;20050;-46
2023/07/16 03:31:20;;;;;;;5.90;4.32;;;;;;;;;;9985649;28;20424;-48
2023/07/16 03:36:13;;;;;;;7.28;4.82;;;;;;;;;;9970245;28;20203;-47
2023/07/16 03:41:06;;;;;;;9.00;4.88;;;;;;;;;;9985368;28;20129;-46
2023/07/16 03:45:59;;;;;;;5.72;4.68;;;;;;;;;;9987775;28;20511;-47
2023/07/16 03:50:51;;;;;;;5.47;4.53;;;;;;;;;;9985453;28;20956;-47
2023/07/16 03:55:45;;;;;;;6.25;5.05;;;;;;;;;;9968501;28;20054;-49
2023/07/16 04:00:38;;;;;;;4.85;4.15;;;;;;;;;;9984499;28;20049;-47
2023/07/16 04:05:30;;;;;;;5.57;4.88;;;;;;;;;;9958784;28;20080;-49
2023/07/16 04:10:22;;;;;;;5.78;4.82;;;;;;;;;;9981066;28;20145;-48
2023/07/16 04:15:13;;;;;;;4.65;4.15;;;;;;;;;;9985730;28;20046;-46
2023/07/16 04:20:06;;;;;;;12.23;4.60;;;;;;;;;;9985825;28;20042;-51
2023/07/16 04:24:58;;;;;;;5.03;4.15;;;;;;;;;;9983995;28;20424;-50
2023/07/16 04:29:50;;;;;;;5.05;4.53;;;;;;;;;;9986470;28;20046;-49
2023/07/16 04:34:42;;;;;;;5.20;4.30;;;;;;;;;;9993322;28;20065;-51
2023/07/16 04:39:34;;;;;;;6.47;4.70;;;;;;;;;;9992538;28;20046;-49
2023/07/16 04:44:26;;;;;;;5.45;4.90;;;;;;;;;;9992456;28;20039;-50
2023/07/16 04:49:18;;;;;;;4.90;4.32;;;;;;;;;;9992225;28;20054;-48
2023/07/16 04:54:09;;;;;;;5.97;4.35;;;;;;;;;;9992800;28;20047;-48
2023/07/16 04:59:01;;;;;;;4.70;4.10;;;;;;;;;;9992455;28;20058;-48
2023/07/16 05:03:53;;;;;;;5.30;4.80;;;;;;;;;;9990060;28;20050;-47
2023/07/16 05:08:45;;;;;;;7.57;4.75;;;;;;;;;;9991541;28;20068;-46
2023/07/16 05:13:39;;;;;;;4.90;4.35;;;;;;;;;;9992075;28;20050;-48
2023/07/16 05:18:31;;;;;;;5.13;4.13;;;;;;;;;;9990529;28;20046;-48
2023/07/16 05:23:23;;;;;;;4.15;3.78;;;;;;;;;;9990630;28;20137;-48
2023/07/16 05:28:15;;;;;;;3.90;3.60;;;;;;;;;;9990949;28;20050;-48
2023/07/16 05:33:07;;;;;;;4.60;4.07;;;;;;;;;;9990749;28;20133;-48
2023/07/16 05:37:59;;;;;;;7.25;4.60;;;;;;;;;;9990469;28;20042;-51
2023/07/16 05:42:51;;;;;;;5.30;4.10;;;;;;;;;;9989936;28;20054;-48
2023/07/16 05:47:43;;;;;;;6.03;4.55;;;;;;;;;;9992358;28;20419;-48
2023/07/16 05:52:35;;;;;;;5.63;5.05;;;;;;;;;;9974988;28;20051;-49
2023/07/16 05:57:27;;;;;;;5.20;4.15;;;;;;;;;;9984780;28;20311;-48
2023/07/16 06:02:19;;;;;;;4.68;4.03;;;;;;;;;;9982660;28;20133;-47
2023/07/16 06:07:12;;;;;;;4.25;3.85;;;;;;;;;;9983311;28;20051;-48
2023/07/16 06:12:04;;;;;;;8.63;5.03;;;;;;;;;;9988588;28;20472;-48
2023/07/16 06:16:56;;;;;;;5.70;4.28;;;;;;;;;;9988163;28;20093;-47
2023/07/16 06:21:48;;;;;;;5.45;3.85;;;;;;;;;;9990964;28;20046;-44
2023/07/16 06:26:40;;;;;;;5.72;4.35;;;;;;;;;;9987216;28;20046;-43
2023/07/16 06:31:32;;;;;;;4.78;4.03;;;;;;;;;;9988252;28;20140;-45
2023/07/16 06:36:25;;;;;;;8.75;5.97;;;;;;;;;;9988451;28;20105;-46
2023/07/16 06:41:17;;;;;;;6.43;4.35;;;;;;;;;;9986372;28;20062;-44
2023/07/16 06:46:09;;;;;;;5.45;4.70;;;;;;;;;;9984932;28;20061;-44
2023/07/16 06:51:01;;;;;;;4.93;4.43;;;;;;;;;;9985705;28;20415;-44
2023/07/16 06:55:53;;;;;;;4.65;4.13;;;;;;;;;;9988560;28;20104;-44
2023/07/16 07:00:45;;;;;;;6.72;3.83;;;;;;;;;;9987041;28;20057;-44
2023/07/16 07:05:41;;;;;;;5.55;4.03;;;;;;;;;;9987660;28;20042;-44
2023/07/16 07:10:35;;;;;;;7.28;5.10;;;;;;;;;;9986669;28;20058;-45
2023/07/16 07:15:26;;;;;;;10.80;4.47;;;;;;;;;;9984862;28;20046;-44
2023/07/16 07:20:18;;;;;;;6.13;4.05;;;;;;;;;;9979870;28;20053;-45
2023/07/16 07:25:10;;;;;;;4.90;4.03;;;;;;;;;;9973288;28;20050;-45
2023/07/16 07:30:03;;;;;;;5.68;4.22;;;;;;;;;;9971280;28;20054;-45
2023/07/16 07:34:54;;;;;;;5.10;4.55;;;;;;;;;;9965513;28;20046;-43
2023/07/16 07:39:52;;;;;;;5.10;4.45;;;;;;;;;;9983180;28;20380;-44
2023/07/16 07:44:44;;;;;;;6.37;5.07;;;;;;;;;;9966522;28;20053;-43
2023/07/16 07:49:35;;;;;;;5.10;4.00;;;;;;;;;;9972738;28;20449;-43
2023/07/16 07:54:27;;;;;;;5.63;3.97;;;;;;;;;;9987654;28;20473;-44
2023/07/16 07:59:19;;;;;;;6.57;4.43;;;;;;;;;;9976265;28;20061;-44
2023/07/16 08:04:11;;;;;;;8.60;4.03;;;;;;;;;;9989716;28;20066;-43
2023/07/16 08:09:03;;;;;;;5.50;4.07;;;;;;;;;;9987140;28;20082;-44
2023/07/16 08:13:55;;;;;;;6.10;3.90;;;;;;;;;;9995687;28;20211;-43
2023/07/16 08:18:47;;;;;;;5.07;3.90;;;;;;;;;;9996145;28;20053;-44
2023/07/16 08:23:39;;;;;;;6.32;4.43;;;;;;;;;;9995188;28;20070;-44
2023/07/16 08:28:31;;;;;;;6.05;3.95;;;;;;;;;;9994991;28;20158;-46
2023/07/16 08:33:22;;;;;;;6.38;4.68;;;;;;;;;;9994790;28;20042;-45
2023/07/16 08:38:14;;;;;;;6.82;4.38;;;;;;;;;;9995209;28;20046;-46
2023/07/16 08:43:11;;;;;;;5.65;4.07;;;;;;;;;;9993277;28;20042;-45
2023/07/16 08:48:03;;;;;;;16.13;5.30;;;;;;;;;;9992268;28;20129;-40
2023/07/16 08:52:55;;;;;;;6.43;4.30;;;;;;;;;;9990121;28;20038;-43
2023/07/16 08:57:47;;;;;;;8.80;5.10;;;;;;;;;;9956024;28;20097;-43
2023/07/16 09:02:39;;;;;;;5.45;4.35;;;;;;;;;;9993732;28;20054;-43
2023/07/16 09:07:31;;;;;;;13.10;6.65;;;;;;;;;;10018601;28;20420;-42
2023/07/16 09:12:24;;;;;;;6.93;5.45;;;;;;;;;;9986905;28;20380;-41
2023/07/16 09:17:26;;;;;;;9.38;4.72;;;;;;;;;;9982856;28;20050;-45
2023/07/16 09:22:19;;;;;;;8.02;6.43;;;;;;;;;;9972175;28;20057;-42
2023/07/16 09:27:11;;;;;;;5.28;4.78;;;;;;;;;;10015428;28;20053;-43
2023/07/16 09:32:04;;;;;;;6.88;5.10;;;;;;;;;;9979842;28;20051;-43
2023/07/16 09:36:57;;;;;;;6.07;5.47;;;;;;;;;;9968346;28;20042;-44
2023/07/16 09:41:50;;;;;;;7.55;5.57;;;;;;;;;;9990786;28;20097;-44
2023/07/16 09:46:42;;;;;;;7.68;5.07;;;;;;;;;;9979198;28;20100;-44
2023/07/16 09:51:36;;;;;;;6.13;4.95;;;;;;;;;;9989201;28;20042;-46
2023/07/16 09:56:34;;;;;;;5.90;5.32;;;;;;;;;;9987651;28;20050;-46
2023/07/16 10:01:26;;;;;;;5.72;5.10;;;;;;;;;;9987366;28;20053;-45
2023/07/16 10:06:18;;;;;;;6.10;5.25;;;;;;;;;;9989154;28;20125;-44
2023/07/16 10:11:17;;;;;;;5.40;4.80;;;;;;;;;;9987344;28;20043;-44
2023/07/16 10:16:20;;;;;;;5.88;5.07;;;;;;;;;;9989471;28;20354;-44
2023/07/16 10:21:12;;;;;;;7.25;5.47;;;;;;;;;;9989451;28;20353;-45
2023/07/16 10:26:05;;;;;;;5.22;4.72;;;;;;;;;;9989114;28;20527;-42
2023/07/16 10:30:58;;;;;;;8.52;7.32;;;;;;;;;;9988941;28;20101;-46
2023/07/16 10:35:50;;;;;;;9.52;6.95;;;;;;;;;;9983905;28;20527;-45
2023/07/16 10:40:43;;;;;;;10.27;6.35;;;;;;;;;;9972782;28;20046;-44
2023/07/16 10:45:35;;;;;;;12.20;7.03;;;;;;;;;;9977990;28;20693;-46
2023/07/16 10:50:27;;;;;;;8.45;6.85;;;;;;;;;;9976107;28;20432;-46
2023/07/16 10:55:19;;;;;;;10.05;7.25;;;;;;;;;;9975604;28;20534;-46
2023/07/16 11:00:12;;;;;;;7.80;6.88;;;;;;;;;;9977623;28;20046;-45
2023/07/16 11:05:04;;;;;;;10.60;7.25;;;;;;;;;;9976102;28;20534;-46
2023/07/16 11:09:56;;;;;;;9.35;7.15;;;;;;;;;;9982768;28;20060;-46
2023/07/16 11:14:51;;;;;;;8.80;6.72;;;;;;;;;;9987758;28;20085;-45
2023/07/16 11:19:48;;;;;;;11.13;6.80;;;;;;;;;;9988970;28;20054;-45
2023/07/16 11:24:41;;;;;;;7.10;6.05;;;;;;;;;;9986319;28;20042;-46
2023/07/16 11:29:38;;;;;;;8.05;6.25;;;;;;;;;;9987913;28;20146;-45
2023/07/16 11:34:30;;;;;;;7.93;6.55;;;;;;;;;;9989057;28;20487;-44
2023/07/16 11:39:24;;;;;;;7.65;5.88;;;;;;;;;;9988917;28;20073;-43
2023/07/16 11:44:19;;;;;;;8.98;6.03;;;;;;;;;;9968540;28;20050;-45
2023/07/16 11:49:11;;;;;;;7.35;5.70;;;;;;;;;;9984376;28;20141;-44
2023/07/16 11:54:02;;;;;;;9.18;6.63;;;;;;;;;;9981287;28;20097;-43
2023/07/16 11:58:54;;;;;;;6.22;5.07;;;;;;;;;;9987642;28;20097;-44
2023/07/16 12:03:46;;;;;;;7.75;5.45;;;;;;;;;;9987241;28;20089;-44
2023/07/16 12:08:38;;;;;;;6.30;5.68;;;;;;;;;;9971215;28;20082;-45
2023/07/16 12:13:30;;;;;;;8.38;5.25;;;;;;;;;;9983910;28;20150;-43
2023/07/16 12:18:22;;;;;;;6.95;6.22;;;;;;;;;;9984217;28;20113;-42
2023/07/16 12:23:14;;;;;;;6.93;5.25;;;;;;;;;;9984252;28;20506;-45
2023/07/16 12:28:06;;;;;;;6.35;5.75;;;;;;;;;;9984619;28;20141;-44
2023/07/16 12:32:57;;;;;;;5.78;5.10;;;;;;;;;;9983318;28;20093;-43
2023/07/16 12:37:49;;;;;;;9.73;5.97;;;;;;;;;;9984708;28;20038;-44
2023/07/16 12:42:41;;;;;;;5.93;5.10;;;;;;;;;;9984398;28;20086;-46
2023/07/16 12:47:33;;;;;;;6.47;5.15;;;;;;;;;;9983242;28;20046;-46
2023/07/16 12:52:25;;;;;;;6.68;5.75;;;;;;;;;;9989946;28;20038;-43
2023/07/16 12:57:17;;;;;;;6.88;5.28;;;;;;;;;;9994940;28;20038;-45
2023/07/16 13:02:09;;;;;;;7.68;4.93;;;;;;;;;;9992300;28;20038;-45
2023/07/16 13:07:01;;;;;;;8.48;5.70;;;;;;;;;;9992374;28;20536;-44
2023/07/16 13:11:53;;;;;;;8.80;6.28;;;;;;;;;;9994007;28;20081;-43
2023/07/16 13:16:45;;;;;;;5.65;4.68;;;;;;;;;;9992996;28;20856;-41
2023/07/16 13:21:37;;;;;;;6.05;4.88;;;;;;;;;;9992784;28;20039;-43
2023/07/16 13:26:28;;;;;;;7.40;5.50;;;;;;;;;;9993081;28;20489;-43
2023/07/16 13:31:20;;;;;;;8.25;4.65;;;;;;;;;;9992803;28;20050;-44
2023/07/16 13:36:12;;;;;;;6.35;5.07;;;;;;;;;;9976011;28;20124;-44
2023/07/16 13:41:04;;;;;;;8.07;5.50;;;;;;;;;;9992376;28;20125;-43
2023/07/16 13:45:56;;;;;;;6.65;4.22;;;;;;;;;;9992235;28;20570;-42
2023/07/16 13:50:48;;;;;;;7.47;5.05;;;;;;;;;;9992407;28;20094;-44
2023/07/16 13:55:40;;;;;;;5.63;4.95;;;;;;;;;;9991550;28;20078;-44
2023/07/16 14:00:32;;;;;;;6.13;5.57;;;;;;;;;;9991840;28;20043;-44
2023/07/16 14:05:24;;;;;;;5.43;4.90;;;;;;;;;;9991403;28;20049;-44
2023/07/16 14:10:16;;;;;;;4.93;4.53;;;;;;;;;;9991550;28;20054;-45
2023/07/16 14:15:08;;;;;;;5.25;4.75;;;;;;;;;;9991111;28;20042;-40
2023/07/16 14:20:00;;;;;;;4.88;4.47;;;;;;;;;;9991869;28;20468;-42
2023/07/16 14:24:51;;;;;;;9.98;5.30;;;;;;;;;;9990838;28;20066;-42
2023/07/16 14:29:43;;;;;;;7.13;4.72;;;;;;;;;;9990805;28;20380;-41
2023/07/16 14:34:55;;;;;;;5.03;4.63;;;;;;;;;;9989294;28;20042;-41
2023/07/16 14:39:47;;;;;;;7.97;4.97;;;;;;;;;;9989722;28;20046;-44
2023/07/16 14:44:39;;;;;;;5.70;4.45;;;;;;;;;;9989750;28;20042;-43
2023/07/16 14:49:31;;;;;;;5.32;4.72;;;;;;;;;;9990129;28;20500;-42
2023/07/16 14:54:22;;;;;;;12.65;4.53;;;;;;;;;;9989225;28;20129;-42
2023/07/16 14:59:14;;;;;;;7.25;4.72;;;;;;;;;;9989546;28;20129;-42
2023/07/16 15:04:06;;;;;;;6.20;4.60;;;;;;;;;;9985327;28;20451;-40
2023/07/16 15:08:58;;;;;;;7.18;5.45;;;;;;;;;;9983471;28;20061;-42
2023/07/16 15:13:50;;;;;;;4.45;4.15;;;;;;;;;;9982427;28;20109;-42
2023/07/16 15:18:42;;;;;;;5.60;4.35;;;;;;;;;;9988011;28;20050;-42
2023/07/16 15:23:34;;;;;;;7.13;4.45;;;;;;;;;;9989292;28;20050;-43
2023/07/16 15:28:26;;;;;;;5.03;4.40;;;;;;;;;;9988731;28;20050;-44
2023/07/16 15:33:18;;;;;;;4.38;3.97;;;;;;;;;;9989206;28;20073;-42
2023/07/16 15:38:10;;;;;;;8.20;4.70;;;;;;;;;;9989045;28;20042;-41
2023/07/16 15:43:02;;;;;;;4.60;4.20;;;;;;;;;;9947781;28;20484;-43
2023/07/16 15:47:58;;;;;;;4.72;4.32;;;;;;;;;;9984275;28;20164;-42
2023/07/16 15:52:50;;;;;;;5.10;4.30;;;;;;;;;;9986069;28;20101;-45
2023/07/16 15:57:42;;;;;;;5.68;4.72;;;;;;;;;;9983514;28;20050;-45
2023/07/16 16:02:34;;;;;;;4.85;4.45;;;;;;;;;;9983972;28;20560;-44
2023/07/16 16:07:26;;;;;;;7.20;5.07;;;;;;;;;;9983107;28;20050;-45
2023/07/16 16:12:18;;;;;;;5.22;4.78;;;;;;;;;;9983891;28;20137;-47
2023/07/16 16:17:10;;;;;;;5.13;4.55;;;;;;;;;;9983806;28;20097;-45
2023/07/16 16:22:02;;;;;;;4.63;4.03;;;;;;;;;;9984497;28;20085;-44
2023/07/16 16:26:54;;;;;;;5.55;5.05;;;;;;;;;;9991580;28;20169;-44
2023/07/16 16:31:46;;;;;;;6.38;5.32;;;;;;;;;;9993564;28;20234;-44
2023/07/16 16:36:38;;;;;;;4.53;4.13;;;;;;;;;;9993577;28;20050;-45
2023/07/16 16:41:29;;;;;;;5.95;4.50;;;;;;;;;;9994076;28;20081;-45
2023/07/16 16:46:21;;;;;;;4.70;4.20;;;;;;;;;;9992046;28;20046;-45
2023/07/16 16:51:13;;;;;;;5.07;4.55;;;;;;;;;;9991401;28;20460;-45
2023/07/16 16:56:05;;;;;;;4.03;3.63;;;;;;;;;;9989883;28;20345;-44
2023/07/16 17:00:57;;;;;;;5.20;4.78;;;;;;;;;;9990166;28;20465;-44
2023/07/16 17:05:52;;;;;;;4.45;4.05;;;;;;;;;;9990232;28;20130;-45
2023/07/16 17:10:44;;;;;;;5.95;4.55;;;;;;;;;;9990993;28;20190;-45
2023/07/16 17:15:36;;;;;;;6.70;4.80;;;;;;;;;;9992643;28;20089;-45
2023/07/16 17:20:28;;;;;;;7.15;5.43;;;;;;;;;;9967760;28;20046;-45
2023/07/16 17:25:20;;;;;;;8.75;5.32;;;;;;;;;;9976662;28;20125;-44
2023/07/16 17:30:12;;;;;;;8.82;5.30;;;;;;;;;;9992108;28;20071;-46
2023/07/16 17:35:04;;;;;;;6.28;4.47;;;;;;;;;;9989796;28;20109;-46
2023/07/16 17:39:56;;;;;;;6.60;5.57;;;;;;;;;;9990946;28;20043;-45
2023/07/16 17:44:48;;;;;;;6.82;5.07;;;;;;;;;;9992403;28;20096;-44
2023/07/16 17:49:40;;;;;;;5.53;4.93;;;;;;;;;;9989531;28;20125;-44
2023/07/16 17:54:32;;;;;;;7.03;4.32;;;;;;;;;;9990155;28;20118;-45
2023/07/16 17:59:24;;;;;;;4.47;4.07;;;;;;;;;;9988399;28;20053;-44
2023/07/16 18:04:17;;;;;;;5.63;4.72;;;;;;;;;;9966920;28;20042;-45
2023/07/16 18:09:14;;;;;;;4.60;4.20;;;;;;;;;;9980136;28;20055;-42
2023/07/16 18:14:06;;;;;;;9.70;5.75;;;;;;;;;;9971914;28;20043;-43
2023/07/16 18:18:58;;;;;;;4.95;4.47;;;;;;;;;;9989415;28;20415;-40
2023/07/16 18:23:50;;;;;;;9.25;5.40;;;;;;;;;;9987895;28;20528;-43
2023/07/16 18:28:42;;;;;;;7.03;4.60;;;;;;;;;;9988045;28;20084;-41
2023/07/16 18:33:33;;;;;;;5.97;5.00;;;;;;;;;;9988597;28;20046;-42
2023/07/16 18:38:25;;;;;;;5.47;4.57;;;;;;;;;;9952734;28;20043;-42
2023/07/16 18:43:18;;;;;;;5.15;4.70;;;;;;;;;;9951290;28;20055;-44
2023/07/16 18:48:10;;;;;;;4.95;4.45;;;;;;;;;;9951531;28;20047;-45
2023/07/16 18:53:03;;;;;;;6.22;4.63;;;;;;;;;;9952120;28;20473;-43
2023/07/16 18:57:54;;;;;;;7.70;4.80;;;;;;;;;;9951516;28;20105;-45
2023/07/16 19:02:46;;;;;;;6.00;4.43;;;;;;;;;;9950944;28;20484;-46
2023/07/16 19:07:38;;;;;;;6.85;5.07;;;;;;;;;;9949945;28;20109;-46
2023/07/16 19:12:30;;;;;;;6.13;5.22;;;;;;;;;;9951063;28;20465;-45
2023/07/16 19:17:24;;;;;;;7.25;5.25;;;;;;;;;;9951419;28;20051;-48
2023/07/16 19:22:16;;;;;;;4.45;4.05;;;;;;;;;;9983475;28;20109;-47
2023/07/16 19:27:07;;;;;;;6.38;4.32;;;;;;;;;;9988214;28;20528;-46
2023/07/16 19:32:00;;;;;;;5.40;4.90;;;;;;;;;;9989349;28;20382;-45
2023/07/16 19:36:52;;;;;;;4.65;4.15;;;;;;;;;;9988214;28;20444;-48
2023/07/16 19:41:45;;;;;;;4.55;4.15;;;;;;;;;;9988572;28;20042;-45
2023/07/16 19:46:37;;;;;;;5.45;4.40;;;;;;;;;;9988711;28;20085;-47
2023/07/16 19:51:30;;;;;;;4.95;4.55;;;;;;;;;;9987064;28;20432;-44
2023/07/16 19:56:22;;;;;;;6.22;4.13;;;;;;;;;;9986804;28;20070;-44
2023/07/16 20:01:15;;;;;;;10.50;5.80;;;;;;;;;;9986737;28;20077;-47
2023/07/16 20:06:07;;;;;;;6.07;4.28;;;;;;;;;;9987678;28;20380;-47
2023/07/16 20:10:59;;;;;;;6.45;4.65;;;;;;;;;;9997471;28;20054;-48
2023/07/16 20:15:51;;;;;;;8.55;6.57;;;;;;;;;;9986844;28;20149;-45
2023/07/16 20:20:43;;;;;;;10.23;4.82;;;;;;;;;;9986680;28;20046;-47
2023/07/16 20:25:36;;;;;;;6.30;4.90;;;;;;;;;;9987253;28;20050;-47
2023/07/16 20:30:28;;;;;;;9.52;5.10;;;;;;;;;;9986910;28;20054;-48
2023/07/16 20:35:20;;;;;;;7.20;5.20;;;;;;;;;;9986717;28;20604;-45
2023/07/16 20:40:12;;;;;;;10.60;4.38;;;;;;;;;;9985431;28;20052;-48
2023/07/16 20:45:21;;;;;;;8.75;5.28;;;;;;;;;;9985561;28;20049;-48
2023/07/16 20:50:15;;;;;;;5.93;5.38;;;;;;;;;;9986627;28;20043;-47
2023/07/16 20:55:08;;;;;;;7.78;4.80;;;;;;;;;;9985638;28;20043;-44
2023/07/16 21:00:02;;;;;;;6.03;4.20;;;;;;;;;;9985154;28;20058;-47
2023/07/16 21:04:54;;;;;;;7.35;5.95;;;;;;;;;;9985207;28;20078;-46
2023/07/16 21:09:46;;;;;;;5.18;4.68;;;;;;;;;;9985043;28;20083;-43
2023/07/16 21:14:38;;;;;;;7.55;5.65;;;;;;;;;;9990317;28;20042;-45
2023/07/16 21:19:29;;;;;;;6.50;5.82;;;;;;;;;;9989079;28;20038;-47
2023/07/16 21:24:23;;;;;;;7.43;5.78;;;;;;;;;;9989087;28;20498;-46
2023/07/16 21:29:15;;;;;;;5.80;5.18;;;;;;;;;;9989435;28;20050;-50
2023/07/16 21:34:06;;;;;;;6.22;5.13;;;;;;;;;;9991496;28;20042;-43
2023/07/16 21:38:58;;;;;;;8.82;5.63;;;;;;;;;;9994974;28;20066;-47
2023/07/16 21:43:50;;;;;;;5.25;4.70;;;;;;;;;;10024697;28;20042;-48
2023/07/16 21:48:42;;;;;;;9.23;5.65;;;;;;;;;;10011001;28;20176;-48
2023/07/16 21:53:33;;;;;;;5.78;5.05;;;;;;;;;;9991067;28;20520;-46
2023/07/16 21:58:25;;;;;;;7.43;5.18;;;;;;;;;;9991775;28;20042;-46
2023/07/16 22:03:19;;;;;;;7.65;5.28;;;;;;;;;;9990778;28;20116;-46
2023/07/16 22:08:11;;;;;;;6.03;5.35;;;;;;;;;;9990561;28;20357;-48
2023/07/16 22:13:04;;;;;;;7.88;5.03;;;;;;;;;;10017766;28;20535;-43
2023/07/16 22:17:56;;;;;;;5.47;4.97;;;;;;;;;;10010982;28;20045;-43
2023/07/16 22:22:48;;;;;;;7.80;4.85;;;;;;;;;;9989381;28;20178;-48
2023/07/16 22:27:40;;;;;;;6.55;5.22;;;;;;;;;;9990350;28;20057;-46
2023/07/16 22:32:32;;;;;;;8.35;5.18;;;;;;;;;;9989638;28;20047;-47
2023/07/16 22:37:24;;;;;;;7.35;5.57;;;;;;;;;;9990549;28;20046;-46
2023/07/16 22:42:16;;;;;;;7.43;5.50;;;;;;;;;;9988794;28;20050;-45
2023/07/16 22:47:08;;;;;;;6.07;4.68;;;;;;;;;;9986249;28;20153;-47
2023/07/16 22:52:00;;;;;;;5.30;4.60;;;;;;;;;;9983247;28;20081;-43
2023/07/16 22:56:52;;;;;;;5.55;5.05;;;;;;;;;;9984661;28;20042;-46
2023/07/16 23:01:44;;;;;;;5.65;4.97;;;;;;;;;;9985668;28;20046;-47
2023/07/16 23:06:36;;;;;;;5.47;4.88;;;;;;;;;;9985835;28;20377;-45
2023/07/16 23:11:28;;;;;;;5.55;5.05;;;;;;;;;;9986044;28;20065;-47
2023/07/16 23:16:20;;;;;;;5.30;4.80;;;;;;;;;;9984980;28;20049;-47
2023/07/16 23:21:12;;;;;;;6.93;5.30;;;;;;;;;;9982844;28;20492;-48
2023/07/16 23:26:05;;;;;;;5.07;4.30;;;;;;;;;;9985361;28;20125;-46
2023/07/16 23:30:57;;;;;;;7.05;4.88;;;;;;;;;;9985107;28;20080;-47
2023/07/16 23:35:49;;;;;;;7.07;5.47;;;;;;;;;;9985555;28;20081;-46
2023/07/16 23:40:41;;;;;;;5.13;4.63;;;;;;;;;;9985831;28;20053;-46
2023/07/16 23:45:34;;;;;;;6.57;5.05;;;;;;;;;;9986276;28;20042;-45
2023/07/16 23:50:26;;;;;;;5.85;5.22;;;;;;;;;;9984436;28;20054;-47
2023/07/16 23:55:18;;;;;;;4.93;4.50;;;;;;;;;;9984320;28;20432;-47
